Chiniot Weather



Chiniot's Current Weather

Temprature 22.04o clear sky

clear sky

Rain: 0 %

Min Temprature22.04o
Max Temprature22.04o
Humidity82
Wind Speed2.57 m/h
Sun Rise05:58:27
Sun Set18:00:37
Current Time: 26-Sep-2022 07:14:52
Lat/Lon: 31.72, 72.9789




Chiniot's Geo Location



Chiniot's Weather Forecast

Time Overall Temp Min Temp Max Temp Humidity Wind Speed Rain
26-Sep-2022 (Mon)
08:00:00 light rain 24.310 24.310 24.310 75 2.81 m/h 84 %
11:00:00 clear sky 26.450 26.450 30.720 66 3.04 m/h 0 %
14:00:00 clear sky 30.720 30.720 33.920 50 2.84 m/h 0 %
17:00:00 clear sky 33.370 33.370 33.370 38 2.4 m/h 0 %
20:00:00 clear sky 29.140 29.140 29.140 49 2.66 m/h 0 %
23:00:00 clear sky 27.510 27.510 27.510 54 2.25 m/h 0 %
27-Sep-2022 (Tue)
02:00:00 clear sky 26.410 26.410 26.410 58 2.42 m/h 0 %
05:00:00 clear sky 25.470 25.470 25.470 68 2.53 m/h 0 %
08:00:00 clear sky 28.580 28.580 28.580 57 2.47 m/h 0 %
11:00:00 clear sky 34.110 34.110 34.110 37 2.11 m/h 0 %
14:00:00 clear sky 36.560 36.560 36.560 28 1.64 m/h 0 %
17:00:00 clear sky 35.770 35.770 35.770 28 1.93 m/h 0 %
20:00:00 clear sky 30.370 30.370 30.370 45 3.81 m/h 0 %
23:00:00 clear sky 28.440 28.440 28.440 53 3.29 m/h 0 %
28-Sep-2022 (Wed)
02:00:00 clear sky 27.040 27.040 27.040 58 3.52 m/h 0 %
05:00:00 clear sky 25.760 25.760 25.760 61 2.79 m/h 0 %
08:00:00 clear sky 29.090 29.090 29.090 47 2.48 m/h 0 %
11:00:00 clear sky 35.180 35.180 35.180 28 2.39 m/h 0 %
14:00:00 clear sky 37.960 37.960 37.960 21 1.19 m/h 0 %
17:00:00 clear sky 36.900 36.900 36.900 22 0.76 m/h 0 %
20:00:00 clear sky 30.390 30.390 30.390 42 3.7 m/h 0 %
23:00:00 clear sky 28.730 28.730 28.730 52 4.37 m/h 0 %
29-Sep-2022 (Thu)
02:00:00 clear sky 26.810 26.810 26.810 55 2.83 m/h 0 %
05:00:00 clear sky 26.500 26.500 26.500 43 2.07 m/h 0 %
08:00:00 clear sky 29.960 29.960 29.960 33 2.23 m/h 0 %
11:00:00 clear sky 35.940 35.940 35.940 20 2.4 m/h 0 %
14:00:00 clear sky 38.230 38.230 38.230 19 2.42 m/h 0 %
17:00:00 clear sky 37.030 37.030 37.030 21 1.42 m/h 0 %
20:00:00 scattered clouds 31.060 31.060 31.060 31 2.88 m/h 0 %
23:00:00 few clouds 28.580 28.580 28.580 44 1.68 m/h 0 %
30-Sep-2022 (Fri)
02:00:00 clear sky 27.080 27.080 27.080 46 0.32 m/h 0 %
05:00:00 clear sky 26.790 26.790 26.790 48 1.07 m/h 0 %
08:00:00 clear sky 30.380 30.380 30.380 37 1.15 m/h 0 %
11:00:00 clear sky 36.090 36.090 36.090 20 2.19 m/h 0 %
14:00:00 clear sky 38.220 38.220 38.220 17 2.22 m/h 0 %
17:00:00 clear sky 37.020 37.020 37.020 19 1.16 m/h 0 %
20:00:00 clear sky 30.950 30.950 30.950 26 2.37 m/h 0 %
23:00:00 clear sky 28.270 28.270 28.270 35 2.43 m/h 0 %
01-Oct-2022 (Sat)
02:00:00 clear sky 27.880 27.880 27.880 31 1.7 m/h 0 %
05:00:00 clear sky 26.620 26.620 26.620 38 1.89 m/h 0 %


Chiniot's Tourist Spots

Historical Places in Chiniot

Famous Cities (61)